Time;durP1;ratioP1;P1;durP2;ratioP2;P2;SDS_P1;SDS_P2;PMS_P1;PMS_P2;Temp;Humidity;BMP_temperature;BMP_pressure;BME280_temperature;BME280_humidity;BME280_pressure;Samples;Min_cycle;Max_cycle;Signal;HPM_P1;HPM_P2
2021/10/19 00:00:56;;;;;;;;;;;20.50;51.00;;;;;;500198;238;1145;-48
2021/10/19 00:02:57;;;;;;;;;;;20.60;51.00;;;;;;500390;238;983;-48
2021/10/19 00:04:59;;;;;;;;;;;20.60;50.90;;;;;;500372;238;1092;-47
2021/10/19 00:07:00;;;;;;;;;;;20.50;51.00;;;;;;499907;238;1297;-48
2021/10/19 00:09:01;;;;;;;;;;;20.50;51.10;;;;;;499906;238;1208;-47
2021/10/19 00:11:02;;;;;;;;;;;20.50;51.10;;;;;;499835;238;2171;-48
2021/10/19 00:13:04;;;;;;;;;;;20.50;51.10;;;;;;500340;238;1202;-47
2021/10/19 00:15:05;;;;;;;;;;;20.50;51.00;;;;;;500302;238;1039;-47
2021/10/19 00:17:06;;;;;;;;;;;20.50;51.00;;;;;;499748;235;1295;-47
2021/10/19 00:19:08;;;;;;;;;;;20.50;51.00;;;;;;499838;238;1122;-47
2021/10/19 00:21:09;;;;;;;;;;;20.50;51.00;;;;;;500295;238;1602;-47
2021/10/19 00:23:10;;;;;;;;;;;20.50;51.00;;;;;;500151;238;1077;-47
2021/10/19 00:25:15;;;;;;;;;;;20.50;51.00;;;;;;499793;238;1012;-48
2021/10/19 00:27:13;;;;;;;;;;;20.50;51.00;;;;;;499569;238;2433;-47
2021/10/19 00:29:15;;;;;;;;;;;20.50;51.00;;;;;;500068;238;1015;-48
2021/10/19 00:31:16;;;;;;;;;;;20.50;51.10;;;;;;500256;238;2204;-47
2021/10/19 00:33:17;;;;;;;;;;;20.50;51.00;;;;;;499874;238;1213;-47
2021/10/19 00:35:19;;;;;;;;;;;20.50;51.00;;;;;;500383;238;1142;-48
2021/10/19 00:37:20;;;;;;;;;;;20.50;51.00;;;;;;500238;238;1470;-47
2021/10/19 00:39:21;;;;;;;;;;;20.40;51.10;;;;;;499935;238;1202;-48
2021/10/19 00:41:23;;;;;;;;;;;20.50;51.00;;;;;;500186;238;1226;-47
2021/10/19 00:43:24;;;;;;;;;;;20.50;51.00;;;;;;499977;238;1818;-48
2021/10/19 00:45:25;;;;;;;;;;;20.40;51.10;;;;;;499900;238;1027;-48
2021/10/19 00:47:26;;;;;;;;;;;20.50;51.10;;;;;;499979;238;1206;-47
2021/10/19 00:49:28;;;;;;;;;;;20.50;51.00;;;;;;499871;238;1030;-48
2021/10/19 00:51:29;;;;;;;;;;;20.50;51.00;;;;;;499797;238;2129;-48
2021/10/19 00:53:30;;;;;;;;;;;20.50;51.00;;;;;;499919;238;1136;-47
2021/10/19 00:55:32;;;;;;;;;;;20.50;51.00;;;;;;499882;238;1079;-47
2021/10/19 00:57:33;;;;;;;;;;;20.40;51.00;;;;;;499915;238;1188;-48
2021/10/19 00:59:36;;;;;;;;;;;20.50;51.10;;;;;;500093;238;1055;-47
2021/10/19 01:01:36;;;;;;;;;;;20.50;51.00;;;;;;499684;238;2393;-47
2021/10/19 01:03:37;;;;;;;;;;;20.50;51.00;;;;;;499890;238;1074;-47
2021/10/19 01:05:38;;;;;;;;;;;20.50;51.00;;;;;;500325;238;1085;-47
2021/10/19 01:07:40;;;;;;;;;;;20.50;51.00;;;;;;500053;238;1324;-48
2021/10/19 01:09:41;;;;;;;;;;;20.50;51.00;;;;;;499868;238;1222;-48
2021/10/19 01:11:42;;;;;;;;;;;20.50;51.10;;;;;;499830;238;2191;-47
2021/10/19 01:13:44;;;;;;;;;;;20.50;51.00;;;;;;500355;238;1059;-47
2021/10/19 01:15:45;;;;;;;;;;;20.50;51.00;;;;;;499828;238;1031;-47
2021/10/19 01:17:46;;;;;;;;;;;20.50;51.10;;;;;;499792;238;1266;-48
2021/10/19 01:19:47;;;;;;;;;;;20.50;51.00;;;;;;500198;238;1240;-48
2021/10/19 01:21:49;;;;;;;;;;;20.40;51.00;;;;;;499769;238;1203;-48
2021/10/19 01:23:50;;;;;;;;;;;20.50;51.00;;;;;;500180;238;1143;-47
2021/10/19 01:25:51;;;;;;;;;;;20.50;51.00;;;;;;499923;238;1233;-48
2021/10/19 01:27:53;;;;;;;;;;;20.40;51.00;;;;;;499873;238;1168;-48
2021/10/19 01:29:54;;;;;;;;;;;20.40;51.10;;;;;;499810;238;1185;-47
2021/10/19 01:31:55;;;;;;;;;;;20.40;51.10;;;;;;499916;238;2120;-48
2021/10/19 01:33:57;;;;;;;;;;;20.50;51.00;;;;;;500289;238;1092;-47
2021/10/19 01:35:58;;;;;;;;;;;20.50;50.90;;;;;;500157;235;1701;-47
2021/10/19 01:37:59;;;;;;;;;;;20.50;51.00;;;;;;499915;238;1182;-47
2021/10/19 01:40:01;;;;;;;;;;;20.50;51.00;;;;;;499847;237;1204;-48
2021/10/19 01:42:02;;;;;;;;;;;20.50;51.00;;;;;;499948;238;1184;-47
2021/10/19 01:44:03;;;;;;;;;;;20.50;51.00;;;;;;500084;238;998;-47
2021/10/19 01:46:05;;;;;;;;;;;20.50;50.90;;;;;;499738;238;1174;-47
2021/10/19 01:48:06;;;;;;;;;;;20.50;50.90;;;;;;499770;238;1184;-47
2021/10/19 01:50:07;;;;;;;;;;;20.40;51.00;;;;;;500004;238;1030;-47
2021/10/19 01:52:09;;;;;;;;;;;20.40;51.00;;;;;;499964;238;2177;-48
2021/10/19 01:54:10;;;;;;;;;;;20.50;51.00;;;;;;499887;238;1124;-48
2021/10/19 01:56:11;;;;;;;;;;;20.50;51.00;;;;;;499847;238;1399;-47
2021/10/19 01:58:13;;;;;;;;;;;20.50;51.00;;;;;;499981;238;1170;-48
2021/10/19 02:00:14;;;;;;;;;;;20.40;50.90;;;;;;499828;238;1072;-47
2021/10/19 02:02:15;;;;;;;;;;;20.50;51.00;;;;;;499914;238;1209;-48
2021/10/19 02:04:16;;;;;;;;;;;20.50;51.00;;;;;;499847;238;969;-48
2021/10/19 02:06:18;;;;;;;;;;;20.50;51.00;;;;;;499795;238;1390;-47
2021/10/19 02:08:19;;;;;;;;;;;20.40;50.90;;;;;;500279;238;1047;-47
2021/10/19 02:10:20;;;;;;;;;;;20.40;51.00;;;;;;499961;238;2537;-47
2021/10/19 02:12:22;;;;;;;;;;;20.50;51.00;;;;;;499961;238;2120;-47
2021/10/19 02:14:23;;;;;;;;;;;20.50;51.00;;;;;;500250;238;1060;-47
2021/10/19 02:16:24;;;;;;;;;;;20.40;51.00;;;;;;500124;238;1160;-48
2021/10/19 02:18:26;;;;;;;;;;;20.40;51.00;;;;;;499800;238;1039;-48
2021/10/19 02:20:27;;;;;;;;;;;20.40;51.00;;;;;;500089;238;1328;-47
2021/10/19 02:22:28;;;;;;;;;;;20.40;51.00;;;;;;500336;238;1054;-47
2021/10/19 02:24:30;;;;;;;;;;;20.40;51.00;;;;;;499895;238;1261;-48
2021/10/19 02:26:31;;;;;;;;;;;20.40;51.00;;;;;;499908;238;1318;-48
2021/10/19 02:28:32;;;;;;;;;;;20.40;50.90;;;;;;499938;238;1123;-47
2021/10/19 02:30:34;;;;;;;;;;;20.40;50.90;;;;;;500342;238;1108;-48
2021/10/19 02:32:35;;;;;;;;;;;20.40;51.00;;;;;;499988;238;2180;-47
2021/10/19 02:34:36;;;;;;;;;;;20.50;51.00;;;;;;500176;238;1115;-48
2021/10/19 02:36:38;;;;;;;;;;;20.40;50.90;;;;;;499996;238;1371;-48
2021/10/19 02:38:39;;;;;;;;;;;20.40;50.90;;;;;;499911;238;1048;-48
2021/10/19 02:40:40;;;;;;;;;;;20.40;50.90;;;;;;499866;238;1201;-47
2021/10/19 02:42:41;;;;;;;;;;;20.40;51.00;;;;;;499970;238;1077;-47
2021/10/19 02:44:43;;;;;;;;;;;20.50;50.90;;;;;;500397;238;1060;-47
2021/10/19 02:46:44;;;;;;;;;;;20.40;50.90;;;;;;500171;238;1383;-47
2021/10/19 02:48:45;;;;;;;;;;;20.50;51.00;;;;;;500417;238;964;-48
2021/10/19 02:50:47;;;;;;;;;;;20.50;50.80;;;;;;500233;238;1417;-48
2021/10/19 02:52:48;;;;;;;;;;;20.50;50.90;;;;;;499874;238;2168;-47
2021/10/19 02:54:51;;;;;;;;;;;20.40;50.90;;;;;;500130;238;1140;-47
2021/10/19 02:56:51;;;;;;;;;;;20.40;50.90;;;;;;499915;238;2316;-48
2021/10/19 02:58:52;;;;;;;;;;;20.50;50.90;;;;;;500173;238;1212;-47
2021/10/19 03:00:54;;;;;;;;;;;20.40;50.90;;;;;;499837;238;1094;-48
2021/10/19 03:02:55;;;;;;;;;;;20.40;50.90;;;;;;500299;238;1188;-48
2021/10/19 03:04:56;;;;;;;;;;;20.40;50.90;;;;;;500258;238;1048;-47
2021/10/19 03:06:57;;;;;;;;;;;20.40;51.00;;;;;;499901;238;1321;-47
2021/10/19 03:08:59;;;;;;;;;;;20.40;50.90;;;;;;499878;238;1027;-48
2021/10/19 03:11:00;;;;;;;;;;;20.40;50.90;;;;;;499968;238;1482;-47
2021/10/19 03:13:01;;;;;;;;;;;20.40;50.90;;;;;;499880;238;2110;-47
2021/10/19 03:15:03;;;;;;;;;;;20.50;50.90;;;;;;500195;238;1037;-48
2021/10/19 03:17:04;;;;;;;;;;;20.40;50.90;;;;;;499855;238;1110;-48
2021/10/19 03:19:05;;;;;;;;;;;20.40;50.90;;;;;;499921;238;976;-47
2021/10/19 03:21:07;;;;;;;;;;;20.40;51.00;;;;;;500285;238;1014;-47
2021/10/19 03:23:08;;;;;;;;;;;20.40;51.00;;;;;;499825;238;1128;-47
2021/10/19 03:25:10;;;;;;;;;;;20.40;50.90;;;;;;499895;238;1221;-47
2021/10/19 03:27:11;;;;;;;;;;;20.40;50.90;;;;;;499969;238;1136;-48
2021/10/19 03:29:12;;;;;;;;;;;20.50;50.80;;;;;;499865;238;1083;-47
2021/10/19 03:31:14;;;;;;;;;;;20.40;50.80;;;;;;500020;238;1099;-47
2021/10/19 03:33:15;;;;;;;;;;;20.40;50.90;;;;;;500012;238;2109;-47
2021/10/19 03:35:16;;;;;;;;;;;20.40;50.90;;;;;;499867;238;1040;-48
2021/10/19 03:37:18;;;;;;;;;;;20.40;50.90;;;;;;499981;238;1140;-48
2021/10/19 03:39:19;;;;;;;;;;;20.40;50.90;;;;;;499886;238;1058;-47
2021/10/19 03:41:20;;;;;;;;;;;20.50;50.90;;;;;;500018;238;1209;-47
2021/10/19 03:43:21;;;;;;;;;;;20.40;50.90;;;;;;499880;238;1181;-47
2021/10/19 03:45:23;;;;;;;;;;;20.40;50.90;;;;;;500080;238;1128;-48
2021/10/19 03:47:24;;;;;;;;;;;20.40;50.90;;;;;;499796;238;1179;-48
2021/10/19 03:49:25;;;;;;;;;;;20.40;50.90;;;;;;499918;238;1024;-48
2021/10/19 03:51:27;;;;;;;;;;;20.40;50.90;;;;;;499951;238;2184;-48
2021/10/19 03:53:29;;;;;;;;;;;20.40;51.00;;;;;;500315;238;1359;-47
2021/10/19 03:55:30;;;;;;;;;;;20.40;50.90;;;;;;500286;238;1266;-48
2021/10/19 03:57:31;;;;;;;;;;;20.40;50.90;;;;;;499821;238;1183;-47
2021/10/19 03:59:32;;;;;;;;;;;20.40;50.80;;;;;;499908;238;1084;-48
2021/10/19 04:01:34;;;;;;;;;;;20.40;50.90;;;;;;499781;238;1112;-47
2021/10/19 04:03:35;;;;;;;;;;;20.40;50.90;;;;;;500260;238;1156;-47
2021/10/19 04:05:36;;;;;;;;;;;20.40;51.00;;;;;;499987;238;1186;-46
2021/10/19 04:07:38;;;;;;;;;;;20.40;50.90;;;;;;499767;238;1202;-47
2021/10/19 04:09:39;;;;;;;;;;;20.40;51.00;;;;;;500059;238;1056;-48
2021/10/19 04:11:40;;;;;;;;;;;20.40;50.90;;;;;;499967;238;2195;-47
2021/10/19 04:13:42;;;;;;;;;;;20.40;50.90;;;;;;500249;238;1064;-47
2021/10/19 04:15:43;;;;;;;;;;;20.40;50.90;;;;;;499820;238;1465;-47
2021/10/19 04:17:44;;;;;;;;;;;20.40;50.90;;;;;;500180;238;988;-48
2021/10/19 04:19:46;;;;;;;;;;;20.40;50.90;;;;;;499799;238;1111;-47
2021/10/19 04:21:49;;;;;;;;;;;20.40;50.80;;;;;;500256;238;1147;-47
2021/10/19 04:23:49;;;;;;;;;;;20.40;50.90;;;;;;499707;238;2037;-47
2021/10/19 04:25:50;;;;;;;;;;;20.40;51.00;;;;;;499845;238;1173;-47
2021/10/19 04:27:52;;;;;;;;;;;20.40;51.00;;;;;;499847;238;1057;-47
2021/10/19 04:29:53;;;;;;;;;;;20.40;50.90;;;;;;499960;238;1079;-47
2021/10/19 04:31:55;;;;;;;;;;;20.40;50.90;;;;;;499998;238;2112;-48
2021/10/19 04:33:56;;;;;;;;;;;20.40;50.90;;;;;;500056;238;1037;-48
2021/10/19 04:35:57;;;;;;;;;;;20.40;50.80;;;;;;499873;238;1190;-48
2021/10/19 04:37:59;;;;;;;;;;;20.40;50.80;;;;;;499817;238;1045;-48
2021/10/19 04:40:00;;;;;;;;;;;20.40;50.80;;;;;;500082;238;1250;-47
2021/10/19 04:42:01;;;;;;;;;;;20.40;50.80;;;;;;499617;238;1217;-47
2021/10/19 04:44:03;;;;;;;;;;;20.40;50.80;;;;;;499715;238;1039;-48
2021/10/19 04:46:04;;;;;;;;;;;20.40;50.80;;;;;;499748;238;1116;-47
2021/10/19 04:48:05;;;;;;;;;;;20.40;50.80;;;;;;499729;238;1232;-47
2021/10/19 04:50:07;;;;;;;;;;;20.40;50.80;;;;;;499553;238;1054;-47
2021/10/19 04:52:08;;;;;;;;;;;20.40;50.80;;;;;;499502;238;2191;-47
2021/10/19 04:54:09;;;;;;;;;;;20.40;50.80;;;;;;499695;238;1176;-48
2021/10/19 04:56:11;;;;;;;;;;;20.40;50.80;;;;;;499551;238;1586;-47
2021/10/19 04:58:12;;;;;;;;;;;20.40;50.80;;;;;;499527;238;1184;-47
2021/10/19 05:00:13;;;;;;;;;;;20.40;50.90;;;;;;499842;238;1264;-47
2021/10/19 05:02:15;;;;;;;;;;;20.50;50.90;;;;;;499606;238;1302;-48
2021/10/19 05:04:16;;;;;;;;;;;20.40;50.80;;;;;;499893;238;1063;-47
2021/10/19 05:06:17;;;;;;;;;;;20.40;50.70;;;;;;499531;238;1229;-47
2021/10/19 05:08:19;;;;;;;;;;;20.40;50.80;;;;;;499535;238;1045;-48
2021/10/19 05:10:21;;;;;;;;;;;20.40;50.90;;;;;;499630;238;1186;-48
2021/10/19 05:12:22;;;;;;;;;;;20.40;50.90;;;;;;499499;238;2251;-47
2021/10/19 05:14:23;;;;;;;;;;;20.40;50.90;;;;;;499481;238;2337;-48
2021/10/19 05:16:24;;;;;;;;;;;20.40;50.80;;;;;;499421;238;1227;-48
2021/10/19 05:18:25;;;;;;;;;;;20.40;50.80;;;;;;499409;238;1219;-47
2021/10/19 05:20:27;;;;;;;;;;;20.40;50.80;;;;;;499662;238;1206;-47
2021/10/19 05:22:28;;;;;;;;;;;20.40;50.90;;;;;;499683;238;1149;-48
2021/10/19 05:24:29;;;;;;;;;;;20.40;50.90;;;;;;499527;238;1053;-47
2021/10/19 05:26:31;;;;;;;;;;;20.40;50.80;;;;;;499307;238;2387;-47
2021/10/19 05:28:32;;;;;;;;;;;20.40;50.80;;;;;;499378;238;1228;-48
2021/10/19 05:30:34;;;;;;;;;;;20.40;50.90;;;;;;499477;238;1049;-48
2021/10/19 05:32:35;;;;;;;;;;;20.40;50.90;;;;;;499448;238;2192;-48
2021/10/19 05:34:36;;;;;;;;;;;20.40;50.90;;;;;;499678;238;1167;-47
2021/10/19 05:36:38;;;;;;;;;;;20.40;50.90;;;;;;499338;238;1351;-47
2021/10/19 05:38:39;;;;;;;;;;;20.40;50.90;;;;;;499260;238;1063;-48
2021/10/19 05:40:40;;;;;;;;;;;20.40;50.80;;;;;;499213;238;1182;-47
2021/10/19 05:42:42;;;;;;;;;;;20.50;50.70;;;;;;499368;238;1277;-47
2021/10/19 05:44:43;;;;;;;;;;;20.40;50.80;;;;;;499301;238;1080;-47
2021/10/19 05:46:44;;;;;;;;;;;20.40;50.80;;;;;;499475;238;1152;-48
2021/10/19 05:48:45;;;;;;;;;;;20.40;50.80;;;;;;499267;238;1055;-47
2021/10/19 05:50:47;;;;;;;;;;;20.40;50.80;;;;;;499439;238;1084;-47
2021/10/19 05:52:48;;;;;;;;;;;20.40;50.80;;;;;;499487;238;2196;-47
2021/10/19 05:54:49;;;;;;;;;;;20.40;50.80;;;;;;499544;238;1182;-47
2021/10/19 05:56:51;;;;;;;;;;;20.40;50.90;;;;;;499427;238;1098;-47
2021/10/19 05:58:53;;;;;;;;;;;20.40;50.80;;;;;;499359;238;1139;-48
2021/10/19 06:00:54;;;;;;;;;;;20.40;50.80;;;;;;499378;238;1102;-47
2021/10/19 06:02:55;;;;;;;;;;;20.40;50.80;;;;;;499341;238;1254;-47
2021/10/19 06:04:57;;;;;;;;;;;20.40;50.80;;;;;;499364;238;1220;-47
2021/10/19 06:06:58;;;;;;;;;;;20.40;50.90;;;;;;499345;238;1273;-48
2021/10/19 06:08:59;;;;;;;;;;;20.40;50.80;;;;;;499327;238;1256;-48
2021/10/19 06:11:01;;;;;;;;;;;20.40;50.80;;;;;;499301;238;1043;-47
2021/10/19 06:13:02;;;;;;;;;;;20.40;50.80;;;;;;499496;238;2145;-48
2021/10/19 06:15:03;;;;;;;;;;;20.40;50.70;;;;;;499208;238;2055;-47
2021/10/19 06:17:05;;;;;;;;;;;20.40;50.70;;;;;;499143;238;1290;-48
2021/10/19 06:19:06;;;;;;;;;;;20.40;50.80;;;;;;498993;238;1228;-47
2021/10/19 06:21:07;;;;;;;;;;;20.40;50.80;;;;;;499221;238;1097;-47
2021/10/19 06:23:09;;;;;;;;;;;20.40;50.90;;;;;;499072;238;1346;-48
2021/10/19 06:25:10;;;;;;;;;;;20.40;50.90;;;;;;499147;238;1128;-47
2021/10/19 06:27:11;;;;;;;;;;;20.40;50.90;;;;;;499242;238;1250;-47
2021/10/19 06:29:12;;;;;;;;;;;20.40;50.90;;;;;;499044;238;1204;-47
2021/10/19 06:31:14;;;;;;;;;;;20.40;50.80;;;;;;498956;238;1137;-48
2021/10/19 06:33:15;;;;;;;;;;;20.40;50.80;;;;;;498908;238;2184;-48
2021/10/19 06:35:16;;;;;;;;;;;20.40;50.80;;;;;;498987;238;1060;-48
2021/10/19 06:37:18;;;;;;;;;;;20.40;50.80;;;;;;499164;238;1288;-48
2021/10/19 06:39:19;;;;;;;;;;;20.40;50.80;;;;;;499113;238;1332;-47
2021/10/19 06:41:20;;;;;;;;;;;20.40;50.70;;;;;;499090;238;1247;-48
2021/10/19 06:43:22;;;;;;;;;;;20.40;50.70;;;;;;499240;238;1168;-47
2021/10/19 06:45:23;;;;;;;;;;;20.40;50.70;;;;;;499008;238;1144;-47
2021/10/19 06:47:24;;;;;;;;;;;20.40;50.70;;;;;;499028;238;1054;-48
2021/10/19 06:49:26;;;;;;;;;;;20.40;50.80;;;;;;499134;238;1095;-47
2021/10/19 06:51:27;;;;;;;;;;;20.40;50.80;;;;;;498994;238;1282;-48
2021/10/19 06:53:28;;;;;;;;;;;20.40;50.80;;;;;;498976;238;2172;-48
2021/10/19 06:55:30;;;;;;;;;;;20.40;50.70;;;;;;499110;238;1095;-48
2021/10/19 06:57:31;;;;;;;;;;;20.40;50.80;;;;;;499082;238;1187;-48
2021/10/19 06:59:33;;;;;;;;;;;20.40;50.70;;;;;;499091;238;1214;-48
2021/10/19 07:01:34;;;;;;;;;;;20.40;50.80;;;;;;498987;238;1353;-47
2021/10/19 07:03:35;;;;;;;;;;;20.40;50.70;;;;;;499819;238;849;-48
2021/10/19 07:05:37;;;;;;;;;;;20.40;50.70;;;;;;499076;238;1116;-47
2021/10/19 07:07:38;;;;;;;;;;;20.40;50.80;;;;;;499062;238;1251;-48
2021/10/19 07:09:39;;;;;;;;;;;20.40;50.80;;;;;;499018;238;1218;-48
2021/10/19 07:11:41;;;;;;;;;;;20.40;50.80;;;;;;498834;238;1115;-47
2021/10/19 07:13:42;;;;;;;;;;;20.40;50.80;;;;;;498896;238;2133;-48
2021/10/19 07:15:43;;;;;;;;;;;20.40;50.70;;;;;;498964;238;1230;-48
2021/10/19 07:17:45;;;;;;;;;;;20.40;50.70;;;;;;499036;238;1188;-48
2021/10/19 07:19:47;;;;;;;;;;;20.40;50.70;;;;;;499104;238;2374;-47
2021/10/19 07:21:49;;;;;;;;;;;20.40;50.70;;;;;;498897;238;1262;-47
2021/10/19 07:23:50;;;;;;;;;;;20.40;50.80;;;;;;499824;238;871;-47
2021/10/19 07:25:51;;;;;;;;;;;20.40;50.70;;;;;;499127;238;1398;-48
2021/10/19 07:27:52;;;;;;;;;;;20.40;50.70;;;;;;498918;238;1079;-48
2021/10/19 07:29:54;;;;;;;;;;;20.40;50.70;;;;;;498825;238;1219;-48
2021/10/19 07:31:55;;;;;;;;;;;20.40;50.80;;;;;;498868;238;1363;-48
2021/10/19 07:33:56;;;;;;;;;;;20.50;50.80;;;;;;499066;238;2240;-48
2021/10/19 07:35:58;;;;;;;;;;;20.40;50.70;;;;;;498770;238;1409;-47
2021/10/19 07:37:59;;;;;;;;;;;20.40;50.80;;;;;;498696;238;1144;-47
2021/10/19 07:40:00;;;;;;;;;;;20.40;50.70;;;;;;498820;238;2021;-47
2021/10/19 07:42:02;;;;;;;;;;;20.40;50.70;;;;;;498872;238;1207;-47
2021/10/19 07:44:03;;;;;;;;;;;20.40;50.80;;;;;;498783;238;1272;-48
2021/10/19 07:46:04;;;;;;;;;;;20.40;50.80;;;;;;498877;238;1170;-47
2021/10/19 07:48:06;;;;;;;;;;;20.40;50.90;;;;;;498901;238;1185;-48
2021/10/19 07:50:07;;;;;;;;;;;20.40;50.80;;;;;;498899;238;1073;-48
2021/10/19 07:52:08;;;;;;;;;;;20.40;50.80;;;;;;499085;238;1378;-48
2021/10/19 07:54:10;;;;;;;;;;;20.40;50.80;;;;;;499748;238;2208;-47
2021/10/19 07:56:11;;;;;;;;;;;20.40;50.80;;;;;;498872;238;1580;-47
2021/10/19 07:58:12;;;;;;;;;;;20.40;50.70;;;;;;499022;238;1192;-47
2021/10/19 08:00:14;;;;;;;;;;;20.40;50.70;;;;;;498927;238;1318;-48
2021/10/19 08:02:15;;;;;;;;;;;20.40;50.70;;;;;;498843;238;1225;-47
2021/10/19 08:04:16;;;;;;;;;;;20.50;50.70;;;;;;499645;238;864;-47
2021/10/19 08:06:18;;;;;;;;;;;20.40;50.70;;;;;;498615;238;1260;-47
2021/10/19 08:08:19;;;;;;;;;;;20.40;50.80;;;;;;498605;238;1142;-47
2021/10/19 08:10:21;;;;;;;;;;;20.40;50.80;;;;;;498598;238;1093;-48
2021/10/19 08:12:22;;;;;;;;;;;20.40;50.70;;;;;;498659;238;1107;-48
2021/10/19 08:14:23;;;;;;;;;;;20.40;50.80;;;;;;498803;238;2180;-48
2021/10/19 08:16:25;;;;;;;;;;;20.40;50.70;;;;;;498712;238;1302;-47
2021/10/19 08:18:26;;;;;;;;;;;20.40;50.70;;;;;;498858;238;2458;-48
2021/10/19 08:20:27;;;;;;;;;;;20.40;50.70;;;;;;498950;238;1221;-47
2021/10/19 08:22:29;;;;;;;;;;;20.40;50.80;;;;;;498866;238;1239;-47
2021/10/19 08:24:30;;;;;;;;;;;20.40;50.70;;;;;;498833;238;1295;-48
2021/10/19 08:26:31;;;;;;;;;;;20.40;50.60;;;;;;498684;238;1375;-48
2021/10/19 08:28:33;;;;;;;;;;;20.40;50.70;;;;;;498856;238;1212;-47
2021/10/19 08:30:34;;;;;;;;;;;20.40;50.70;;;;;;498850;238;1364;-47
2021/10/19 08:32:35;;;;;;;;;;;20.40;50.70;;;;;;499154;238;1192;-48
2021/10/19 08:34:37;;;;;;;;;;;20.40;50.70;;;;;;499309;238;2175;-47
2021/10/19 08:36:38;;;;;;;;;;;20.40;50.70;;;;;;498988;238;1173;-48
2021/10/19 08:38:40;;;;;;;;;;;20.40;50.70;;;;;;498899;238;1302;-47
2021/10/19 08:40:41;;;;;;;;;;;20.50;50.70;;;;;;498901;238;1233;-48
2021/10/19 08:42:44;;;;;;;;;;;20.40;50.70;;;;;;498875;238;1296;-47
2021/10/19 08:44:45;;;;;;;;;;;20.40;50.70;;;;;;498902;238;1944;-47
2021/10/19 08:46:46;;;;;;;;;;;20.40;50.80;;;;;;499280;238;1226;-48
2021/10/19 08:48:48;;;;;;;;;;;20.40;50.70;;;;;;499835;238;1049;-48
2021/10/19 08:50:49;;;;;;;;;;;20.40;50.80;;;;;;499792;238;1205;-48
2021/10/19 08:52:50;;;;;;;;;;;20.40;50.70;;;;;;499350;238;1154;-47
2021/10/19 08:54:51;;;;;;;;;;;20.40;50.70;;;;;;499777;238;2188;-47
2021/10/19 08:56:54;;;;;;;;;;;20.40;50.70;;;;;;498911;238;1248;-48
2021/10/19 08:58:54;;;;;;;;;;;20.40;50.70;;;;;;498859;238;1451;-47
2021/10/19 09:00:55;;;;;;;;;;;20.40;50.80;;;;;;498895;238;1207;-47
2021/10/19 09:02:57;;;;;;;;;;;20.40;50.70;;;;;;498928;238;1204;-48
2021/10/19 09:04:58;;;;;;;;;;;20.40;50.70;;;;;;498912;238;1177;-48
2021/10/19 09:06:59;;;;;;;;;;;20.40;50.70;;;;;;498950;238;1326;-47
2021/10/19 09:09:01;;;;;;;;;;;20.40;50.80;;;;;;498862;238;1148;-48
2021/10/19 09:11:02;;;;;;;;;;;20.40;50.70;;;;;;499021;238;1344;-48
2021/10/19 09:13:03;;;;;;;;;;;20.40;50.90;;;;;;498951;238;1258;-47
2021/10/19 09:15:05;;;;;;;;;;;20.40;50.80;;;;;;498885;238;2133;-47
2021/10/19 09:17:07;;;;;;;;;;;20.40;50.90;;;;;;498884;238;1232;-48
2021/10/19 09:19:07;;;;;;;;;;;20.40;50.90;;;;;;498909;238;2493;-47
2021/10/19 09:21:09;;;;;;;;;;;20.40;50.80;;;;;;498900;238;1197;-47
2021/10/19 09:23:12;;;;;;;;;;;20.40;50.70;;;;;;498944;238;1248;-47
2021/10/19 09:25:11;;;;;;;;;;;20.40;50.70;;;;;;498790;238;1980;-47
2021/10/19 09:27:14;;;;;;;;;;;20.40;50.70;;;;;;498571;238;1226;-47
2021/10/19 09:29:14;;;;;;;;;;;20.40;50.80;;;;;;498417;238;2198;-48
2021/10/19 09:31:15;;;;;;;;;;;20.40;50.80;;;;;;498604;238;1314;-47
2021/10/19 09:33:17;;;;;;;;;;;20.40;50.80;;;;;;498763;238;1134;-48
2021/10/19 09:35:18;;;;;;;;;;;20.40;50.80;;;;;;498918;238;2133;-48
2021/10/19 09:37:20;;;;;;;;;;;20.40;50.90;;;;;;498732;238;1172;-47
2021/10/19 09:39:21;;;;;;;;;;;20.40;50.80;;;;;;498895;238;1151;-48
2021/10/19 09:41:22;;;;;;;;;;;20.40;50.80;;;;;;498986;238;1117;-47
2021/10/19 09:43:24;;;;;;;;;;;20.40;50.80;;;;;;499082;238;1247;-48
2021/10/19 09:45:25;;;;;;;;;;;20.40;50.70;;;;;;498904;238;1111;-48
2021/10/19 09:47:26;;;;;;;;;;;20.40;50.80;;;;;;498942;238;1403;-47
2021/10/19 09:49:28;;;;;;;;;;;20.40;50.70;;;;;;499042;238;1146;-47
2021/10/19 09:51:29;;;;;;;;;;;20.40;50.70;;;;;;498786;238;1066;-48
2021/10/19 09:53:30;;;;;;;;;;;20.40;50.70;;;;;;498793;238;2180;-48
2021/10/19 09:55:32;;;;;;;;;;;20.40;50.80;;;;;;498856;238;1066;-48
2021/10/19 09:57:33;;;;;;;;;;;20.40;50.80;;;;;;498956;238;1230;-47
2021/10/19 09:59:34;;;;;;;;;;;20.40;50.90;;;;;;499050;238;1109;-47
2021/10/19 10:01:36;;;;;;;;;;;20.40;50.80;;;;;;498992;238;1238;-47
2021/10/19 10:03:37;;;;;;;;;;;20.40;50.80;;;;;;498904;238;1136;-47
2021/10/19 10:05:39;;;;;;;;;;;20.40;50.80;;;;;;498985;238;1094;-47
2021/10/19 10:07:40;;;;;;;;;;;20.40;50.80;;;;;;499181;238;1213;-47
2021/10/19 10:09:41;;;;;;;;;;;20.40;50.80;;;;;;499081;238;1279;-48
2021/10/19 10:11:42;;;;;;;;;;;20.40;50.70;;;;;;498971;238;1237;-48
2021/10/19 10:13:44;;;;;;;;;;;20.40;50.80;;;;;;498996;238;2157;-47
2021/10/19 10:15:45;;;;;;;;;;;20.40;50.70;;;;;;498994;238;1293;-47
2021/10/19 10:17:46;;;;;;;;;;;20.50;50.70;;;;;;498939;238;1268;-48
2021/10/19 10:19:48;;;;;;;;;;;20.50;50.70;;;;;;499028;238;1379;-47
2021/10/19 10:21:49;;;;;;;;;;;20.40;50.60;;;;;;499078;238;1076;-47
2021/10/19 10:23:50;;;;;;;;;;;20.40;50.70;;;;;;499052;238;1206;-48
2021/10/19 10:25:52;;;;;;;;;;;20.40;50.70;;;;;;499011;238;1145;-47
2021/10/19 10:27:54;;;;;;;;;;;20.40;50.70;;;;;;498952;238;1335;-47
2021/10/19 10:29:55;;;;;;;;;;;20.50;50.70;;;;;;498886;238;1171;-48
2021/10/19 10:31:56;;;;;;;;;;;20.40;50.70;;;;;;498707;238;1268;-48
2021/10/19 10:33:58;;;;;;;;;;;20.40;50.70;;;;;;498741;238;2180;-48
2021/10/19 10:35:59;;;;;;;;;;;20.40;50.70;;;;;;499028;238;1222;-47
2021/10/19 10:38:00;;;;;;;;;;;20.40;50.70;;;;;;499045;238;1240;-48
2021/10/19 10:40:01;;;;;;;;;;;20.50;50.80;;;;;;498970;238;1114;-48
2021/10/19 10:42:03;;;;;;;;;;;20.50;50.70;;;;;;499245;238;1250;-47
2021/10/19 10:44:05;;;;;;;;;;;20.40;50.60;;;;;;499130;238;1199;-48
2021/10/19 10:46:06;;;;;;;;;;;20.40;50.70;;;;;;499019;238;1190;-48
2021/10/19 10:48:07;;;;;;;;;;;20.50;50.80;;;;;;499098;238;1024;-47
2021/10/19 10:50:08;;;;;;;;;;;20.40;50.70;;;;;;498701;238;1219;-47
2021/10/19 10:52:10;;;;;;;;;;;20.50;50.80;;;;;;498699;238;1253;-48
2021/10/19 10:54:11;;;;;;;;;;;20.40;50.70;;;;;;498637;238;2180;-47
2021/10/19 10:56:12;;;;;;;;;;;20.40;50.70;;;;;;498634;238;1292;-48
2021/10/19 10:58:14;;;;;;;;;;;20.40;50.80;;;;;;498562;238;1211;-47
2021/10/19 11:00:15;;;;;;;;;;;20.40;50.80;;;;;;498563;238;1339;-47
2021/10/19 11:02:16;;;;;;;;;;;20.40;50.80;;;;;;498843;238;1371;-47
2021/10/19 11:04:18;;;;;;;;;;;20.40;50.70;;;;;;498784;238;1277;-47
2021/10/19 11:06:19;;;;;;;;;;;20.40;50.80;;;;;;498915;238;1335;-48
2021/10/19 11:08:20;;;;;;;;;;;20.40;50.80;;;;;;498813;238;1153;-48
2021/10/19 11:10:22;;;;;;;;;;;20.50;50.80;;;;;;498797;238;1201;-47
2021/10/19 11:12:23;;;;;;;;;;;20.50;50.70;;;;;;498775;238;1296;-46
2021/10/19 11:14:26;;;;;;;;;;;20.50;50.70;;;;;;498919;238;2192;-47
2021/10/19 11:16:26;;;;;;;;;;;20.50;50.70;;;;;;499154;238;2696;-48
2021/10/19 11:18:27;;;;;;;;;;;20.50;50.70;;;;;;499241;238;925;-48
2021/10/19 11:20:30;;;;;;;;;;;20.40;50.70;;;;;;499729;238;870;-48
2021/10/19 11:22:30;;;;;;;;;;;20.40;50.80;;;;;;499098;238;2296;-48
2021/10/19 11:24:31;;;;;;;;;;;20.40;50.80;;;;;;499714;238;835;-47
2021/10/19 11:26:34;;;;;;;;;;;20.40;50.70;;;;;;499631;235;1371;-47
2021/10/19 11:28:34;;;;;;;;;;;20.40;50.80;;;;;;499624;238;1949;-48
2021/10/19 11:30:36;;;;;;;;;;;20.40;50.80;;;;;;499410;238;1092;-48
2021/10/19 11:32:37;;;;;;;;;;;20.40;50.70;;;;;;498878;238;1176;-48
2021/10/19 11:34:38;;;;;;;;;;;20.40;50.80;;;;;;498966;238;2187;-48
2021/10/19 11:36:39;;;;;;;;;;;20.50;50.70;;;;;;499056;238;1092;-48
2021/10/19 11:38:41;;;;;;;;;;;20.40;50.80;;;;;;498895;238;1141;-48
2021/10/19 11:40:42;;;;;;;;;;;20.40;50.70;;;;;;498949;238;1070;-48
2021/10/19 11:42:44;;;;;;;;;;;20.40;50.70;;;;;;498675;238;1167;-48
2021/10/19 11:44:45;;;;;;;;;;;20.40;50.70;;;;;;498819;238;1113;-47
2021/10/19 11:46:46;;;;;;;;;;;20.40;50.80;;;;;;498942;238;1295;-47
2021/10/19 11:48:48;;;;;;;;;;;20.40;50.80;;;;;;498828;238;1166;-48
2021/10/19 11:50:50;;;;;;;;;;;20.40;50.80;;;;;;498895;238;1232;-48
2021/10/19 11:52:51;;;;;;;;;;;20.40;50.80;;;;;;499736;238;2136;-47
2021/10/19 11:54:52;;;;;;;;;;;20.50;50.80;;;;;;499270;238;2183;-48
2021/10/19 11:56:53;;;;;;;;;;;20.40;50.90;;;;;;498710;238;1424;-47